Аэропорт: Елизово. Петропавловск-Камчатский

ICAO: UHPP

METAR:
2018/05/20 23:00
UHPP 202300Z 20004MPS 170V240 9000 OVC006 03/02 Q1015 R16R/CLRD70 NOSIG RMK MT OBSC QFE758/1011
METAR:
2018/05/20 21:26
TAF 
      AMD UHPP 202024Z 2021/2203 10005G15MPS 5000 -SHRA BKN005 OVC020CB 
      TEMPO 2021/2104 06009G21MPS 1000 SHRASN BKN003 OVC020CB 
     FM210400 03005G15MPS 5000 -SHRA BKN005 OVC015CB 
      TEMPO 2104/2121 28009G21MPS 1000 SHRASN VV003 
      TEMPO 2121/2203 28005G15MPS 1000 SHRA VV003